createdAt,value
2022-12-23T00:01:08.256Z,20.15
2022-12-23T00:06:14.216Z,19.83
2022-12-23T00:11:20.122Z,19.15
2022-12-23T00:16:25.039Z,19.75
2022-12-23T00:21:28.628Z,21.35
2022-12-23T00:26:32.137Z,20.70
2022-12-23T00:31:37.395Z,19.58
2022-12-23T00:36:41.104Z,22.52
2022-12-23T00:42:02.512Z,22.15
2022-12-23T00:47:07.437Z,21.35
2022-12-23T00:52:13.836Z,21.15
2022-12-23T00:57:17.478Z,20.42
2022-12-23T01:02:40.260Z,19.50
2022-12-23T01:07:43.864Z,20.27
2022-12-23T01:12:47.380Z,20.65
2022-12-23T01:17:52.282Z,17.45
2022-12-23T01:22:55.792Z,17.08
2022-12-23T01:27:59.307Z,17.42
2022-12-23T01:33:04.885Z,18.08
2022-12-23T01:38:08.441Z,16.45
2022-12-23T01:43:16.274Z,15.20
2022-12-23T01:48:25.985Z,16.33
2022-12-23T01:53:32.769Z,17.85
2022-12-23T01:58:39.264Z,18.40
2022-12-23T02:03:45.024Z,18.63
2022-12-23T02:09:06.337Z,20.20
2022-12-23T02:20:15.219Z,18.42
2022-12-23T02:25:43.400Z,19.85
2022-12-23T02:30:55.652Z,20.60
2022-12-23T02:36:08.081Z,17.92
2022-12-23T02:41:21.216Z,19.42
2022-12-23T02:46:33.723Z,20.02
2022-12-23T02:51:43.118Z,19.65
2022-12-23T02:56:50.962Z,22.20
2022-12-23T03:01:56.683Z,22.02
2022-12-23T03:07:07.209Z,22.35
2022-12-23T03:12:18.536Z,21.70
2022-12-23T03:17:34.952Z,20.10
2022-12-23T03:22:45.462Z,24.63
2022-12-23T03:27:53.647Z,16.98
2022-12-23T03:33:05.799Z,25.38
2022-12-23T03:38:12.828Z,21.63
2022-12-23T03:43:21.686Z,20.90
2022-12-23T03:48:33.924Z,17.58
2022-12-23T03:53:43.310Z,14.00
2022-12-23T03:58:53.723Z,14.45
2022-12-23T04:04:04.698Z,12.07
2022-12-23T04:09:09.014Z,11.77
2022-12-23T04:14:18.131Z,10.85
2022-12-23T04:19:23.418Z,11.02
2022-12-23T04:24:26.979Z,11.02
2022-12-23T04:29:30.557Z,11.38
2022-12-23T04:34:35.486Z,10.43
2022-12-23T04:39:39.072Z,10.60
2022-12-23T04:44:42.499Z,12.48
2022-12-23T04:49:47.476Z,15.18
2022-12-23T04:54:51.043Z,15.85
2022-12-23T04:59:54.525Z,14.73
2022-12-23T05:04:59.383Z,13.75
2022-12-23T05:10:02.915Z,15.45
2022-12-23T05:15:07.430Z,15.35
2022-12-23T05:20:12.884Z,14.93
2022-12-23T05:25:16.635Z,14.20
2022-12-23T05:30:20.230Z,15.13
2022-12-23T05:35:26.653Z,15.48
2022-12-23T05:40:31.644Z,15.07
2022-12-23T05:45:36.477Z,13.90
2022-12-23T05:50:41.454Z,12.48
2022-12-23T05:55:44.976Z,12.55
2022-12-23T06:00:48.476Z,11.80
2022-12-23T06:05:54.545Z,10.95
2022-12-23T06:10:59.922Z,11.93
2022-12-23T06:16:03.585Z,12.27
2022-12-23T06:21:08.581Z,10.45
2022-12-23T06:26:12.064Z,11.30
2022-12-23T06:31:16.361Z,9.80
2022-12-23T06:36:21.581Z,9.98
2022-12-23T06:41:25.171Z,9.90
2022-12-23T06:46:28.697Z,9.05
2022-12-23T06:51:33.715Z,9.20
2022-12-23T06:56:37.247Z,10.05
2022-12-23T07:01:41.378Z,8.93
2022-12-23T07:06:46.451Z,10.45
2022-12-23T07:11:51.158Z,9.85
2022-12-23T07:16:54.943Z,9.32
2022-12-23T07:21:59.848Z,9.70
2022-12-23T07:27:03.392Z,9.55
2022-12-23T07:32:06.994Z,9.82
2022-12-23T07:37:12.105Z,9.10
2022-12-23T07:42:43.553Z,8.60
2022-12-23T07:47:39.705Z,9.57
2022-12-23T07:52:44.582Z,9.45
2022-12-23T07:57:49.527Z,8.48
2022-12-23T08:02:53.170Z,10.05
2022-12-23T08:07:58.467Z,8.93
2022-12-23T08:13:02.323Z,9.13
2022-12-23T08:18:06.692Z,9.52
2022-12-23T08:23:13.021Z,10.15
2022-12-23T08:28:16.836Z,8.63
2022-12-23T08:33:20.498Z,9.05
2022-12-23T08:38:25.581Z,9.52
2022-12-23T08:43:35.553Z,10.02
2022-12-23T08:48:45.118Z,7.93
2022-12-23T08:54:00.212Z,13.07
2022-12-23T08:59:05.460Z,13.85
2022-12-23T09:04:09.563Z,15.75
2022-12-23T09:09:16.727Z,15.93
2022-12-23T09:14:20.432Z,16.27
2022-12-23T09:19:23.977Z,17.05
2022-12-23T09:24:29.169Z,18.05
2022-12-23T09:29:33.035Z,18.52
2022-12-23T09:34:36.733Z,19.55
2022-12-23T09:39:41.908Z,19.27
2022-12-23T09:45:10.524Z,18.27
2022-12-23T09:50:22.883Z,19.75
2022-12-23T09:55:34.929Z,19.08
2022-12-23T10:00:44.204Z,18.15
2022-12-23T10:05:58.406Z,18.25
2022-12-23T10:11:08.737Z,18.60
2022-12-23T10:16:17.926Z,14.60
2022-12-23T10:21:31.111Z,19.85
2022-12-23T10:26:42.898Z,19.48
2022-12-23T10:32:08.278Z,18.92
2022-12-23T10:37:18.680Z,20.20
2022-12-23T10:42:32.512Z,22.83
2022-12-23T10:47:49.516Z,18.88
2022-12-23T10:52:56.964Z,20.60
2022-12-23T10:58:08.091Z,18.88
2022-12-23T11:08:22.924Z,22.33
2022-12-23T11:13:37.510Z,24.75
2022-12-23T11:18:54.483Z,27.17
2022-12-23T11:24:17.235Z,28.40
2022-12-23T11:29:26.905Z,27.92
2022-12-23T11:34:36.706Z,28.33
2022-12-23T11:39:48.046Z,29.42
2022-12-23T11:44:55.955Z,29.20
2022-12-23T11:50:01.207Z,27.05
2022-12-23T11:55:08.436Z,25.40
2022-12-23T12:00:22.571Z,25.10
2022-12-23T12:05:32.209Z,25.15
2022-12-23T12:10:39.437Z,27.75
2022-12-23T12:15:48.330Z,24.63
2022-12-23T12:20:57.030Z,24.50
2022-12-23T12:26:04.855Z,24.35
2022-12-23T12:31:23.274Z,23.75
2022-12-23T12:36:38.096Z,24.40
2022-12-23T12:41:52.253Z,23.67
2022-12-23T12:47:28.174Z,25.33
2022-12-23T12:52:29.486Z,23.08
2022-12-23T12:57:36.295Z,20.00
2022-12-23T13:03:05.821Z,20.90
2022-12-23T13:08:24.516Z,22.15
2022-12-23T13:13:39.567Z,21.98
2022-12-23T13:18:54.159Z,21.05
2022-12-23T13:24:05.739Z,19.55
2022-12-23T13:29:57.560Z,18.05
2022-12-23T13:35:13.659Z,19.77
2022-12-23T13:40:32.477Z,18.42
2022-12-23T13:45:39.958Z,18.38
2022-12-23T13:50:52.250Z,18.23
2022-12-23T13:56:10.050Z,17.95
2022-12-23T14:01:34.303Z,17.35
2022-12-23T14:06:46.400Z,19.15
2022-12-23T14:12:02.672Z,21.73
2022-12-23T14:17:16.501Z,22.52
2022-12-23T14:22:52.091Z,23.00
2022-12-23T14:28:02.475Z,20.58
2022-12-23T14:33:17.197Z,18.48
2022-12-23T14:38:27.949Z,19.17
2022-12-23T14:43:52.942Z,18.90
2022-12-23T14:49:39.175Z,18.10
2022-12-23T14:55:00.364Z,19.45
2022-12-23T15:00:11.448Z,19.15
2022-12-23T15:05:15.011Z,19.63
2022-12-23T15:10:23.314Z,24.08
2022-12-23T15:15:29.218Z,20.15
2022-12-23T15:20:33.196Z,21.42
2022-12-23T15:25:42.025Z,19.98
2022-12-23T15:30:50.005Z,17.35
2022-12-23T15:35:54.152Z,18.85
2022-12-23T15:41:01.330Z,19.52
2022-12-23T15:46:10.740Z,15.80
2022-12-23T15:51:36.569Z,18.65
2022-12-23T15:56:47.803Z,16.85
2022-12-23T16:01:52.976Z,15.70
2022-12-23T16:06:57.273Z,16.38
2022-12-23T16:12:05.552Z,15.55
2022-12-23T16:17:24.918Z,17.55
2022-12-23T16:22:31.227Z,29.02
2022-12-23T16:27:39.941Z,19.05
2022-12-23T16:32:51.003Z,18.65
2022-12-23T16:37:58.546Z,20.92
2022-12-23T16:43:03.869Z,24.00
2022-12-23T16:48:11.614Z,22.13
2022-12-23T16:53:15.789Z,23.00
2022-12-23T16:58:20.862Z,22.23
2022-12-23T17:03:24.707Z,24.70
2022-12-23T17:08:28.360Z,24.55
2022-12-23T17:13:33.502Z,25.38
2022-12-23T17:18:37.349Z,21.58
2022-12-23T17:23:41.260Z,23.02
2022-12-23T17:28:47.015Z,22.38
2022-12-23T17:33:51.017Z,18.27
2022-12-23T17:38:54.748Z,16.33
2022-12-23T17:44:00.812Z,16.42
2022-12-23T17:49:04.539Z,17.63
2022-12-23T17:54:08.483Z,17.38
2022-12-23T17:59:13.625Z,15.57
2022-12-23T18:04:17.618Z,11.73
2022-12-23T18:09:21.411Z,7.07
2022-12-23T18:14:28.454Z,9.15
2022-12-23T18:19:32.813Z,7.90
2022-12-23T18:24:36.421Z,8.32
2022-12-23T18:29:41.640Z,8.40
2022-12-23T18:34:45.441Z,8.05
2022-12-23T18:39:49.666Z,8.02
2022-12-23T18:44:55.151Z,10.25
2022-12-23T18:49:58.973Z,9.30
2022-12-23T18:55:02.827Z,8.27
2022-12-23T19:00:13.215Z,7.30
2022-12-23T19:05:19.030Z,9.60
2022-12-23T19:10:26.075Z,8.50
2022-12-23T19:15:32.494Z,6.95
2022-12-23T19:20:36.291Z,7.88
2022-12-23T19:25:42.309Z,7.63
2022-12-23T19:30:47.484Z,6.22
2022-12-23T19:35:51.504Z,8.10
2022-12-23T19:40:59.179Z,7.07
2022-12-23T19:46:06.301Z,7.50
2022-12-23T19:51:12.350Z,7.07
2022-12-23T19:56:21.064Z,6.90
2022-12-23T20:01:27.669Z,6.75
2022-12-23T20:06:34.341Z,6.53
2022-12-23T20:11:39.721Z,6.18
2022-12-23T20:16:45.962Z,7.47
2022-12-23T20:21:50.140Z,6.60
2022-12-23T20:26:53.883Z,7.63
2022-12-23T20:31:58.927Z,6.30
2022-12-23T20:37:04.848Z,6.70
2022-12-23T20:42:08.703Z,6.32
2022-12-23T20:47:13.897Z,5.32
2022-12-23T20:52:17.823Z,5.28
2022-12-23T20:57:21.535Z,4.10
2022-12-23T21:02:26.980Z,4.95
2022-12-23T21:07:30.667Z,4.20
2022-12-23T21:12:34.577Z,4.47
2022-12-23T21:17:39.796Z,4.63
2022-12-23T21:22:43.401Z,7.78
2022-12-23T21:27:46.977Z,5.40
2022-12-23T21:32:53.088Z,5.25
2022-12-23T21:37:56.795Z,4.53
2022-12-23T21:43:05.365Z,5.00
2022-12-23T21:48:13.419Z,5.32
2022-12-23T21:53:16.923Z,5.22
2022-12-23T21:58:20.836Z,4.57
2022-12-23T22:03:27.163Z,3.80
2022-12-23T22:08:30.796Z,4.88
2022-12-23T22:13:34.388Z,3.85
2022-12-23T22:18:39.993Z,5.97
2022-12-23T22:23:44.199Z,3.92
2022-12-23T22:28:48.108Z,5.03
2022-12-23T22:33:53.001Z,6.63
2022-12-23T22:38:58.714Z,5.28
2022-12-23T22:44:02.335Z,5.70
2022-12-23T22:49:07.329Z,6.85
2022-12-23T22:54:11.435Z,4.70
2022-12-23T22:59:21.609Z,5.28
2022-12-23T23:04:26.501Z,5.18
2022-12-23T23:09:30.113Z,4.85
2022-12-23T23:14:52.402Z,5.53
2022-12-23T23:19:57.409Z,4.63
2022-12-23T23:25:00.934Z,5.13
2022-12-23T23:30:04.970Z,4.25
2022-12-23T23:35:11.096Z,4.82
2022-12-23T23:40:14.977Z,5.22
2022-12-23T23:45:18.495Z,5.13
2022-12-23T23:50:24.064Z,4.55
2022-12-23T23:55:27.630Z,5.13
